sensor_id;sensor_type;location;lat;lon;timestamp;P1;durP1;ratioP1;P2;durP2;ratioP2
1154;SDS011;566;48.414;9.118;2022-12-10T00:01:09;86.55;;;48.17;;
1154;SDS011;566;48.414;9.118;2022-12-10T00:03:38;105.72;;;55.17;;
1154;SDS011;566;48.414;9.118;2022-12-10T00:06:05;82.05;;;45.78;;
1154;SDS011;566;48.414;9.118;2022-12-10T00:08:33;115.65;;;57.85;;
1154;SDS011;566;48.414;9.118;2022-12-10T00:10:59;126.30;;;55.22;;
1154;SDS011;566;48.414;9.118;2022-12-10T00:13:27;113.60;;;54.53;;
1154;SDS011;566;48.414;9.118;2022-12-10T00:15:52;112.35;;;53.55;;
1154;SDS011;566;48.414;9.118;2022-12-10T00:18:18;88.93;;;49.17;;
1154;SDS011;566;48.414;9.118;2022-12-10T00:20:43;87.80;;;49.08;;
1154;SDS011;566;48.414;9.118;2022-12-10T00:23:09;93.72;;;51.17;;
1154;SDS011;566;48.414;9.118;2022-12-10T00:25:34;133.40;;;58.47;;
1154;SDS011;566;48.414;9.118;2022-12-10T00:28:00;87.50;;;47.05;;
1154;SDS011;566;48.414;9.118;2022-12-10T00:30:26;111.60;;;55.33;;
1154;SDS011;566;48.414;9.118;2022-12-10T00:32:51;77.57;;;43.60;;
1154;SDS011;566;48.414;9.118;2022-12-10T00:35:20;105.85;;;52.38;;
1154;SDS011;566;48.414;9.118;2022-12-10T00:37:45;115.97;;;55.15;;
1154;SDS011;566;48.414;9.118;2022-12-10T00:40:11;123.03;;;58.90;;
1154;SDS011;566;48.414;9.118;2022-12-10T00:42:37;104.30;;;53.58;;
1154;SDS011;566;48.414;9.118;2022-12-10T00:45:03;122.93;;;58.25;;
1154;SDS011;566;48.414;9.118;2022-12-10T00:47:29;95.20;;;49.58;;
1154;SDS011;566;48.414;9.118;2022-12-10T00:49:55;113.22;;;53.78;;
1154;SDS011;566;48.414;9.118;2022-12-10T00:52:20;108.32;;;52.70;;
1154;SDS011;566;48.414;9.118;2022-12-10T00:54:46;111.88;;;56.25;;
1154;SDS011;566;48.414;9.118;2022-12-10T00:57:12;134.20;;;60.13;;
1154;SDS011;566;48.414;9.118;2022-12-10T00:59:37;135.25;;;59.33;;
1154;SDS011;566;48.414;9.118;2022-12-10T01:02:03;136.73;;;61.10;;
1154;SDS011;566;48.414;9.118;2022-12-10T01:04:28;86.32;;;46.10;;
1154;SDS011;566;48.414;9.118;2022-12-10T01:06:54;81.38;;;45.00;;
1154;SDS011;566;48.414;9.118;2022-12-10T01:09:21;101.72;;;49.67;;
1154;SDS011;566;48.414;9.118;2022-12-10T01:11:49;95.07;;;48.85;;
1154;SDS011;566;48.414;9.118;2022-12-10T01:14:18;127.88;;;59.35;;
1154;SDS011;566;48.414;9.118;2022-12-10T01:16:48;105.93;;;52.53;;
1154;SDS011;566;48.414;9.118;2022-12-10T01:19:18;123.55;;;56.20;;
1154;SDS011;566;48.414;9.118;2022-12-10T01:21:44;126.40;;;58.50;;
1154;SDS011;566;48.414;9.118;2022-12-10T01:24:10;96.97;;;50.30;;
1154;SDS011;566;48.414;9.118;2022-12-10T01:26:35;84.95;;;45.67;;
1154;SDS011;566;48.414;9.118;2022-12-10T01:29:01;76.53;;;42.47;;
1154;SDS011;566;48.414;9.118;2022-12-10T01:31:29;99.65;;;49.22;;
1154;SDS011;566;48.414;9.118;2022-12-10T01:34:00;94.45;;;48.13;;
1154;SDS011;566;48.414;9.118;2022-12-10T01:36:28;77.90;;;42.08;;
1154;SDS011;566;48.414;9.118;2022-12-10T01:38:55;79.88;;;40.97;;
1154;SDS011;566;48.414;9.118;2022-12-10T01:41:26;94.97;;;48.67;;
1154;SDS011;566;48.414;9.118;2022-12-10T01:43:58;115.65;;;53.00;;
1154;SDS011;566;48.414;9.118;2022-12-10T01:46:59;126.97;;;56.17;;
1154;SDS011;566;48.414;9.118;2022-12-10T01:49:32;98.28;;;48.60;;
1154;SDS011;566;48.414;9.118;2022-12-10T01:52:03;115.72;;;53.22;;
1154;SDS011;566;48.414;9.118;2022-12-10T01:54:34;87.28;;;47.50;;
1154;SDS011;566;48.414;9.118;2022-12-10T01:57:03;100.40;;;48.80;;
1154;SDS011;566;48.414;9.118;2022-12-10T01:59:32;71.85;;;41.22;;
1154;SDS011;566;48.414;9.118;2022-12-10T02:02:15;80.90;;;44.85;;
1154;SDS011;566;48.414;9.118;2022-12-10T02:07:53;109.90;;;51.33;;
1154;SDS011;566;48.414;9.118;2022-12-10T02:13:05;74.05;;;41.38;;
1154;SDS011;566;48.414;9.118;2022-12-10T02:15:51;113.68;;;52.65;;
1154;SDS011;566;48.414;9.118;2022-12-10T02:21:50;80.78;;;44.13;;
1154;SDS011;566;48.414;9.118;2022-12-10T02:23:54;95.00;;;49.47;;
1154;SDS011;566;48.414;9.118;2022-12-10T02:26:40;90.22;;;47.13;;
1154;SDS011;566;48.414;9.118;2022-12-10T02:31:41;77.47;;;43.88;;
1154;SDS011;566;48.414;9.118;2022-12-10T02:34:20;75.55;;;42.03;;
1154;SDS011;566;48.414;9.118;2022-12-10T02:36:50;78.15;;;44.03;;
1154;SDS011;566;48.414;9.118;2022-12-10T02:39:23;79.43;;;42.92;;
1154;SDS011;566;48.414;9.118;2022-12-10T02:41:53;85.10;;;45.13;;
1154;SDS011;566;48.414;9.118;2022-12-10T02:44:20;91.65;;;47.22;;
1154;SDS011;566;48.414;9.118;2022-12-10T02:46:48;86.07;;;45.53;;
1154;SDS011;566;48.414;9.118;2022-12-10T02:49:16;88.80;;;46.85;;
1154;SDS011;566;48.414;9.118;2022-12-10T02:51:46;83.93;;;45.15;;
1154;SDS011;566;48.414;9.118;2022-12-10T02:59:53;74.57;;;43.08;;
1154;SDS011;566;48.414;9.118;2022-12-10T03:02:40;80.10;;;43.83;;
1154;SDS011;566;48.414;9.118;2022-12-10T03:08:22;73.87;;;41.83;;
1154;SDS011;566;48.414;9.118;2022-12-10T03:10:54;81.38;;;44.53;;
1154;SDS011;566;48.414;9.118;2022-12-10T03:13:39;90.43;;;46.78;;
1154;SDS011;566;48.414;9.118;2022-12-10T03:16:11;77.07;;;43.63;;
1154;SDS011;566;48.414;9.118;2022-12-10T03:18:39;74.68;;;42.13;;
1154;SDS011;566;48.414;9.118;2022-12-10T03:21:05;71.55;;;41.05;;
1154;SDS011;566;48.414;9.118;2022-12-10T03:23:35;80.72;;;43.58;;
1154;SDS011;566;48.414;9.118;2022-12-10T03:26:05;95.72;;;49.88;;
1154;SDS011;566;48.414;9.118;2022-12-10T03:28:37;75.70;;;42.28;;
1154;SDS011;566;48.414;9.118;2022-12-10T03:31:10;101.78;;;51.03;;
1154;SDS011;566;48.414;9.118;2022-12-10T03:33:38;97.35;;;51.00;;
1154;SDS011;566;48.414;9.118;2022-12-10T03:36:05;101.60;;;51.08;;
1154;SDS011;566;48.414;9.118;2022-12-10T03:38:32;86.32;;;44.92;;
1154;SDS011;566;48.414;9.118;2022-12-10T03:40:58;85.25;;;47.08;;
1154;SDS011;566;48.414;9.118;2022-12-10T03:43:27;102.78;;;49.83;;
1154;SDS011;566;48.414;9.118;2022-12-10T03:45:53;110.97;;;52.33;;
1154;SDS011;566;48.414;9.118;2022-12-10T03:48:18;131.55;;;60.53;;
1154;SDS011;566;48.414;9.118;2022-12-10T03:50:44;95.68;;;48.72;;
1154;SDS011;566;48.414;9.118;2022-12-10T03:53:09;82.25;;;44.15;;
1154;SDS011;566;48.414;9.118;2022-12-10T03:55:38;92.65;;;47.85;;
1154;SDS011;566;48.414;9.118;2022-12-10T03:58:03;81.15;;;44.80;;
1154;SDS011;566;48.414;9.118;2022-12-10T04:00:29;88.18;;;47.47;;
1154;SDS011;566;48.414;9.118;2022-12-10T04:02:54;79.40;;;43.63;;
1154;SDS011;566;48.414;9.118;2022-12-10T04:05:20;104.35;;;52.92;;
1154;SDS011;566;48.414;9.118;2022-12-10T04:07:45;105.25;;;50.85;;
1154;SDS011;566;48.414;9.118;2022-12-10T04:10:11;84.57;;;46.47;;
1154;SDS011;566;48.414;9.118;2022-12-10T04:12:37;117.22;;;54.15;;
1154;SDS011;566;48.414;9.118;2022-12-10T04:15:03;85.97;;;45.35;;
1154;SDS011;566;48.414;9.118;2022-12-10T04:17:48;108.45;;;50.42;;
1154;SDS011;566;48.414;9.118;2022-12-10T04:20:13;84.35;;;43.97;;
1154;SDS011;566;48.414;9.118;2022-12-10T04:23:08;113.72;;;53.58;;
1154;SDS011;566;48.414;9.118;2022-12-10T04:25:52;97.10;;;48.85;;
1154;SDS011;566;48.414;9.118;2022-12-10T04:28:36;112.90;;;52.75;;
1154;SDS011;566;48.414;9.118;2022-12-10T04:31:02;98.07;;;45.95;;
1154;SDS011;566;48.414;9.118;2022-12-10T04:33:29;349.27;;;61.17;;
1154;SDS011;566;48.414;9.118;2022-12-10T04:35:55;304.25;;;58.60;;
1154;SDS011;566;48.414;9.118;2022-12-10T04:38:23;263.75;;;60.47;;
1154;SDS011;566;48.414;9.118;2022-12-10T04:40:48;149.57;;;48.75;;
1154;SDS011;566;48.414;9.118;2022-12-10T04:43:14;140.30;;;46.55;;
1154;SDS011;566;48.414;9.118;2022-12-10T04:45:40;246.23;;;53.15;;
1154;SDS011;566;48.414;9.118;2022-12-10T04:48:05;113.70;;;41.47;;
1154;SDS011;566;48.414;9.118;2022-12-10T04:50:31;119.63;;;40.95;;
1154;SDS011;566;48.414;9.118;2022-12-10T04:52:56;106.63;;;40.15;;
1154;SDS011;566;48.414;9.118;2022-12-10T04:55:22;114.00;;;39.97;;
1154;SDS011;566;48.414;9.118;2022-12-10T04:57:47;88.45;;;42.45;;
1154;SDS011;566;48.414;9.118;2022-12-10T05:00:13;153.07;;;52.47;;
1154;SDS011;566;48.414;9.118;2022-12-10T05:02:39;174.80;;;56.80;;
1154;SDS011;566;48.414;9.118;2022-12-10T05:05:04;152.23;;;59.65;;
1154;SDS011;566;48.414;9.118;2022-12-10T05:07:30;97.90;;;45.78;;
1154;SDS011;566;48.414;9.118;2022-12-10T05:09:57;129.43;;;57.53;;
1154;SDS011;566;48.414;9.118;2022-12-10T05:12:25;273.00;;;76.05;;
1154;SDS011;566;48.414;9.118;2022-12-10T05:14:53;106.30;;;43.17;;
1154;SDS011;566;48.414;9.118;2022-12-10T05:17:19;85.35;;;44.00;;
1154;SDS011;566;48.414;9.118;2022-12-10T05:19:44;96.55;;;45.13;;
1154;SDS011;566;48.414;9.118;2022-12-10T05:22:10;84.95;;;41.92;;
1154;SDS011;566;48.414;9.118;2022-12-10T05:27:19;96.75;;;44.78;;
1154;SDS011;566;48.414;9.118;2022-12-10T05:29:45;99.28;;;45.05;;
1154;SDS011;566;48.414;9.118;2022-12-10T05:32:11;95.05;;;46.35;;
1154;SDS011;566;48.414;9.118;2022-12-10T05:34:36;77.78;;;38.50;;
1154;SDS011;566;48.414;9.118;2022-12-10T05:37:02;65.50;;;35.60;;
1154;SDS011;566;48.414;9.118;2022-12-10T05:39:28;67.50;;;35.80;;
1154;SDS011;566;48.414;9.118;2022-12-10T05:41:53;88.07;;;42.63;;
1154;SDS011;566;48.414;9.118;2022-12-10T05:44:19;96.03;;;42.67;;
1154;SDS011;566;48.414;9.118;2022-12-10T05:46:44;79.50;;;41.42;;
1154;SDS011;566;48.414;9.118;2022-12-10T05:49:10;84.25;;;39.53;;
1154;SDS011;566;48.414;9.118;2022-12-10T05:51:37;81.10;;;39.58;;
1154;SDS011;566;48.414;9.118;2022-12-10T05:54:03;66.63;;;36.60;;
1154;SDS011;566;48.414;9.118;2022-12-10T05:56:29;74.00;;;38.58;;
1154;SDS011;566;48.414;9.118;2022-12-10T05:58:59;61.83;;;34.10;;
1154;SDS011;566;48.414;9.118;2022-12-10T06:01:28;58.88;;;33.05;;
1154;SDS011;566;48.414;9.118;2022-12-10T06:03:56;59.58;;;34.15;;
1154;SDS011;566;48.414;9.118;2022-12-10T06:06:24;68.60;;;37.25;;
1154;SDS011;566;48.414;9.118;2022-12-10T06:08:52;59.40;;;32.83;;
1154;SDS011;566;48.414;9.118;2022-12-10T06:11:20;61.33;;;34.75;;
1154;SDS011;566;48.414;9.118;2022-12-10T06:13:46;57.78;;;32.92;;
1154;SDS011;566;48.414;9.118;2022-12-10T06:16:12;62.70;;;34.38;;
1154;SDS011;566;48.414;9.118;2022-12-10T06:18:39;61.78;;;35.80;;
1154;SDS011;566;48.414;9.118;2022-12-10T06:21:06;64.93;;;34.97;;
1154;SDS011;566;48.414;9.118;2022-12-10T06:23:33;67.57;;;36.72;;
1154;SDS011;566;48.414;9.118;2022-12-10T06:26:06;69.32;;;38.15;;
1154;SDS011;566;48.414;9.118;2022-12-10T06:28:34;66.72;;;36.67;;
1154;SDS011;566;48.414;9.118;2022-12-10T06:30:59;80.22;;;39.45;;
1154;SDS011;566;48.414;9.118;2022-12-10T06:33:25;79.82;;;41.13;;
1154;SDS011;566;48.414;9.118;2022-12-10T06:35:51;67.15;;;37.22;;
1154;SDS011;566;48.414;9.118;2022-12-10T06:38:16;76.40;;;40.50;;
1154;SDS011;566;48.414;9.118;2022-12-10T06:40:42;73.35;;;39.92;;
1154;SDS011;566;48.414;9.118;2022-12-10T06:43:08;75.35;;;39.22;;
1154;SDS011;566;48.414;9.118;2022-12-10T06:45:33;69.53;;;37.30;;
1154;SDS011;566;48.414;9.118;2022-12-10T06:48:03;81.43;;;41.22;;
1154;SDS011;566;48.414;9.118;2022-12-10T06:50:28;71.57;;;38.72;;
1154;SDS011;566;48.414;9.118;2022-12-10T06:52:54;82.88;;;42.10;;
1154;SDS011;566;48.414;9.118;2022-12-10T06:55:19;78.35;;;41.75;;
1154;SDS011;566;48.414;9.118;2022-12-10T06:57:45;82.03;;;43.05;;
1154;SDS011;566;48.414;9.118;2022-12-10T07:00:11;87.95;;;43.42;;
1154;SDS011;566;48.414;9.118;2022-12-10T07:02:37;83.50;;;41.13;;
1154;SDS011;566;48.414;9.118;2022-12-10T07:05:02;73.35;;;39.15;;
1154;SDS011;566;48.414;9.118;2022-12-10T07:07:28;63.80;;;36.20;;
1154;SDS011;566;48.414;9.118;2022-12-10T07:09:54;64.15;;;35.53;;
1154;SDS011;566;48.414;9.118;2022-12-10T07:12:19;69.20;;;37.45;;
1154;SDS011;566;48.414;9.118;2022-12-10T07:14:45;71.30;;;37.70;;
1154;SDS011;566;48.414;9.118;2022-12-10T07:17:10;62.47;;;34.83;;
1154;SDS011;566;48.414;9.118;2022-12-10T07:19:39;60.95;;;33.47;;
1154;SDS011;566;48.414;9.118;2022-12-10T07:22:05;65.68;;;35.05;;
1154;SDS011;566;48.414;9.118;2022-12-10T07:24:30;77.68;;;42.03;;
1154;SDS011;566;48.414;9.118;2022-12-10T07:26:59;92.47;;;45.58;;
1154;SDS011;566;48.414;9.118;2022-12-10T07:29:24;76.90;;;40.33;;
1154;SDS011;566;48.414;9.118;2022-12-10T07:31:51;90.55;;;44.22;;
1154;SDS011;566;48.414;9.118;2022-12-10T07:34:17;88.82;;;42.97;;
1154;SDS011;566;48.414;9.118;2022-12-10T07:36:43;103.75;;;49.10;;
1154;SDS011;566;48.414;9.118;2022-12-10T07:39:15;71.32;;;39.72;;
1154;SDS011;566;48.414;9.118;2022-12-10T07:41:44;89.85;;;45.15;;
1154;SDS011;566;48.414;9.118;2022-12-10T07:44:15;94.05;;;45.55;;
1154;SDS011;566;48.414;9.118;2022-12-10T07:46:41;96.32;;;42.35;;
1154;SDS011;566;48.414;9.118;2022-12-10T07:49:10;163.35;;;50.15;;
1154;SDS011;566;48.414;9.118;2022-12-10T07:51:35;92.65;;;43.53;;
1154;SDS011;566;48.414;9.118;2022-12-10T07:54:01;90.32;;;44.97;;
1154;SDS011;566;48.414;9.118;2022-12-10T07:56:27;192.95;;;52.58;;
1154;SDS011;566;48.414;9.118;2022-12-10T07:58:53;114.63;;;50.17;;
1154;SDS011;566;48.414;9.118;2022-12-10T08:01:22;102.75;;;49.38;;
1154;SDS011;566;48.414;9.118;2022-12-10T08:03:49;101.30;;;48.22;;
1154;SDS011;566;48.414;9.118;2022-12-10T08:06:17;115.40;;;53.15;;
1154;SDS011;566;48.414;9.118;2022-12-10T08:08:44;90.38;;;46.72;;
1154;SDS011;566;48.414;9.118;2022-12-10T08:11:11;73.03;;;40.63;;
1154;SDS011;566;48.414;9.118;2022-12-10T08:13:37;80.63;;;42.67;;
1154;SDS011;566;48.414;9.118;2022-12-10T08:16:04;101.97;;;54.28;;
1154;SDS011;566;48.414;9.118;2022-12-10T08:18:30;92.30;;;49.20;;
1154;SDS011;566;48.414;9.118;2022-12-10T08:20:57;76.82;;;39.78;;
1154;SDS011;566;48.414;9.118;2022-12-10T08:23:22;63.42;;;36.97;;
1154;SDS011;566;48.414;9.118;2022-12-10T08:25:48;59.88;;;35.92;;
1154;SDS011;566;48.414;9.118;2022-12-10T08:28:14;65.25;;;35.30;;
1154;SDS011;566;48.414;9.118;2022-12-10T08:30:40;74.65;;;41.95;;
1154;SDS011;566;48.414;9.118;2022-12-10T08:33:10;59.60;;;35.72;;
1154;SDS011;566;48.414;9.118;2022-12-10T08:35:36;67.88;;;38.42;;
1154;SDS011;566;48.414;9.118;2022-12-10T08:38:01;67.63;;;39.58;;
1154;SDS011;566;48.414;9.118;2022-12-10T08:40:27;73.55;;;42.17;;
1154;SDS011;566;48.414;9.118;2022-12-10T08:42:53;79.72;;;42.53;;
1154;SDS011;566;48.414;9.118;2022-12-10T08:45:18;89.60;;;49.47;;
1154;SDS011;566;48.414;9.118;2022-12-10T08:47:44;105.75;;;53.47;;
1154;SDS011;566;48.414;9.118;2022-12-10T08:50:09;92.22;;;49.75;;
1154;SDS011;566;48.414;9.118;2022-12-10T08:52:36;79.10;;;43.72;;
1154;SDS011;566;48.414;9.118;2022-12-10T08:55:02;61.72;;;37.42;;
1154;SDS011;566;48.414;9.118;2022-12-10T08:57:28;70.78;;;40.60;;
1154;SDS011;566;48.414;9.118;2022-12-10T08:59:53;62.67;;;38.33;;
1154;SDS011;566;48.414;9.118;2022-12-10T09:02:19;62.55;;;40.33;;
1154;SDS011;566;48.414;9.118;2022-12-10T09:04:49;109.63;;;50.50;;
1154;SDS011;566;48.414;9.118;2022-12-10T09:07:15;99.45;;;51.60;;
1154;SDS011;566;48.414;9.118;2022-12-10T09:09:40;85.22;;;47.85;;
1154;SDS011;566;48.414;9.118;2022-12-10T09:12:06;76.63;;;41.53;;
1154;SDS011;566;48.414;9.118;2022-12-10T09:14:31;80.53;;;46.65;;
1154;SDS011;566;48.414;9.118;2022-12-10T09:16:57;94.38;;;47.92;;
1154;SDS011;566;48.414;9.118;2022-12-10T09:19:23;81.63;;;44.40;;
1154;SDS011;566;48.414;9.118;2022-12-10T09:21:48;61.35;;;38.42;;
1154;SDS011;566;48.414;9.118;2022-12-10T09:24:14;68.93;;;40.75;;
1154;SDS011;566;48.414;9.118;2022-12-10T09:26:39;68.68;;;40.08;;
1154;SDS011;566;48.414;9.118;2022-12-10T09:29:05;62.88;;;38.10;;
1154;SDS011;566;48.414;9.118;2022-12-10T09:31:30;75.93;;;42.03;;
1154;SDS011;566;48.414;9.118;2022-12-10T09:33:56;83.25;;;48.42;;
1154;SDS011;566;48.414;9.118;2022-12-10T09:36:21;68.72;;;40.33;;
1154;SDS011;566;48.414;9.118;2022-12-10T09:38:47;66.47;;;39.53;;
1154;SDS011;566;48.414;9.118;2022-12-10T09:41:19;59.00;;;37.55;;
1154;SDS011;566;48.414;9.118;2022-12-10T09:43:48;54.13;;;34.45;;
1154;SDS011;566;48.414;9.118;2022-12-10T09:51:37;70.75;;;41.80;;
1154;SDS011;566;48.414;9.118;2022-12-10T09:56:53;70.85;;;41.10;;
1154;SDS011;566;48.414;9.118;2022-12-10T09:59:40;65.80;;;37.92;;
1154;SDS011;566;48.414;9.118;2022-12-10T10:02:22;59.25;;;34.25;;
1154;SDS011;566;48.414;9.118;2022-12-10T10:04:54;70.95;;;40.97;;
1154;SDS011;566;48.414;9.118;2022-12-10T10:07:35;62.33;;;37.30;;
1154;SDS011;566;48.414;9.118;2022-12-10T10:10:27;64.85;;;39.00;;
1154;SDS011;566;48.414;9.118;2022-12-10T10:15:35;55.45;;;34.08;;
1154;SDS011;566;48.414;9.118;2022-12-10T10:18:29;59.95;;;37.03;;
1154;SDS011;566;48.414;9.118;2022-12-10T10:20:53;96.50;;;45.72;;
1154;SDS011;566;48.414;9.118;2022-12-10T10:23:20;68.93;;;40.13;;
1154;SDS011;566;48.414;9.118;2022-12-10T10:25:45;74.93;;;41.88;;
1154;SDS011;566;48.414;9.118;2022-12-10T10:28:12;70.05;;;40.65;;
1154;SDS011;566;48.414;9.118;2022-12-10T10:30:48;56.78;;;35.50;;
1154;SDS011;566;48.414;9.118;2022-12-10T10:33:17;64.47;;;37.17;;
1154;SDS011;566;48.414;9.118;2022-12-10T10:38:16;56.92;;;35.00;;
1154;SDS011;566;48.414;9.118;2022-12-10T10:40:52;56.33;;;35.28;;
1154;SDS011;566;48.414;9.118;2022-12-10T10:43:24;53.38;;;32.53;;
1154;SDS011;566;48.414;9.118;2022-12-10T10:45:58;55.33;;;34.22;;
1154;SDS011;566;48.414;9.118;2022-12-10T10:48:37;59.45;;;36.67;;
1154;SDS011;566;48.414;9.118;2022-12-10T10:56:26;74.28;;;42.83;;
1154;SDS011;566;48.414;9.118;2022-12-10T10:59:04;72.10;;;42.33;;
1154;SDS011;566;48.414;9.118;2022-12-10T11:01:44;64.18;;;39.25;;
1154;SDS011;566;48.414;9.118;2022-12-10T11:04:13;66.00;;;38.28;;
1154;SDS011;566;48.414;9.118;2022-12-10T11:06:40;59.47;;;37.30;;
1154;SDS011;566;48.414;9.118;2022-12-10T11:09:13;61.50;;;37.92;;
1154;SDS011;566;48.414;9.118;2022-12-10T11:11:49;68.45;;;42.70;;
1154;SDS011;566;48.414;9.118;2022-12-10T11:19:41;60.28;;;36.20;;
1154;SDS011;566;48.414;9.118;2022-12-10T11:22:16;48.80;;;31.73;;
1154;SDS011;566;48.414;9.118;2022-12-10T11:24:45;55.67;;;32.67;;
1154;SDS011;566;48.414;9.118;2022-12-10T11:27:20;63.83;;;36.75;;
1154;SDS011;566;48.414;9.118;2022-12-10T11:30:11;48.92;;;30.05;;
1154;SDS011;566;48.414;9.118;2022-12-10T11:35:48;55.67;;;32.85;;
1154;SDS011;566;48.414;9.118;2022-12-10T11:38:29;87.43;;;46.53;;
1154;SDS011;566;48.414;9.118;2022-12-10T11:41:22;74.57;;;44.50;;
1154;SDS011;566;48.414;9.118;2022-12-10T11:44:16;60.30;;;36.88;;
1154;SDS011;566;48.414;9.118;2022-12-10T12:15:19;65.95;;;40.45;;
1154;SDS011;566;48.414;9.118;2022-12-10T12:21:11;64.88;;;38.25;;
1154;SDS011;566;48.414;9.118;2022-12-10T12:23:46;59.80;;;38.50;;
1154;SDS011;566;48.414;9.118;2022-12-10T12:26:31;65.32;;;39.83;;
1154;SDS011;566;48.414;9.118;2022-12-10T12:29:05;77.50;;;48.17;;
1154;SDS011;566;48.414;9.118;2022-12-10T12:31:40;63.95;;;39.72;;
1154;SDS011;566;48.414;9.118;2022-12-10T12:34:14;50.45;;;30.83;;
1154;SDS011;566;48.414;9.118;2022-12-10T12:36:45;47.15;;;29.48;;
1154;SDS011;566;48.414;9.118;2022-12-10T12:42:20;47.85;;;29.77;;
1154;SDS011;566;48.414;9.118;2022-12-10T12:47:34;59.75;;;36.10;;
1154;SDS011;566;48.414;9.118;2022-12-10T12:50:11;49.97;;;31.40;;
1154;SDS011;566;48.414;9.118;2022-12-10T12:52:44;49.78;;;29.70;;
1154;SDS011;566;48.414;9.118;2022-12-10T12:55:17;49.95;;;31.40;;
1154;SDS011;566;48.414;9.118;2022-12-10T12:57:49;50.25;;;30.10;;
1154;SDS011;566;48.414;9.118;2022-12-10T13:00:28;50.47;;;33.85;;
1154;SDS011;566;48.414;9.118;2022-12-10T13:06:11;47.55;;;30.70;;
1154;SDS011;566;48.414;9.118;2022-12-10T13:11:40;63.37;;;34.83;;
1154;SDS011;566;48.414;9.118;2022-12-10T13:21:59;48.03;;;29.08;;
1154;SDS011;566;48.414;9.118;2022-12-10T13:32:18;51.38;;;29.75;;
1154;SDS011;566;48.414;9.118;2022-12-10T13:35:41;54.90;;;31.50;;
1154;SDS011;566;48.414;9.118;2022-12-10T13:42:52;36.78;;;23.75;;
1154;SDS011;566;48.414;9.118;2022-12-10T13:49:18;38.47;;;24.00;;
1154;SDS011;566;48.414;9.118;2022-12-10T13:59:47;31.13;;;19.30;;
1154;SDS011;566;48.414;9.118;2022-12-10T14:02:38;34.58;;;21.00;;
1154;SDS011;566;48.414;9.118;2022-12-10T14:08:13;28.98;;;18.40;;
1154;SDS011;566;48.414;9.118;2022-12-10T14:10:59;33.78;;;20.15;;
1154;SDS011;566;48.414;9.118;2022-12-10T14:13:33;30.05;;;18.52;;
1154;SDS011;566;48.414;9.118;2022-12-10T14:16:06;38.08;;;23.13;;
1154;SDS011;566;48.414;9.118;2022-12-10T14:18:38;30.90;;;19.52;;
1154;SDS011;566;48.414;9.118;2022-12-10T14:21:07;55.58;;;29.67;;
1154;SDS011;566;48.414;9.118;2022-12-10T14:23:37;48.25;;;28.90;;
1154;SDS011;566;48.414;9.118;2022-12-10T14:26:25;50.50;;;28.63;;
1154;SDS011;566;48.414;9.118;2022-12-10T14:29:01;53.33;;;29.85;;
1154;SDS011;566;48.414;9.118;2022-12-10T14:31:49;56.30;;;30.85;;
1154;SDS011;566;48.414;9.118;2022-12-10T14:34:17;61.00;;;34.05;;
1154;SDS011;566;48.414;9.118;2022-12-10T14:36:51;66.13;;;44.10;;
1154;SDS011;566;48.414;9.118;2022-12-10T14:39:31;58.70;;;37.88;;
1154;SDS011;566;48.414;9.118;2022-12-10T14:41:59;58.92;;;35.10;;
1154;SDS011;566;48.414;9.118;2022-12-10T14:44:27;66.10;;;38.50;;
1154;SDS011;566;48.414;9.118;2022-12-10T14:47:04;67.93;;;39.58;;
1154;SDS011;566;48.414;9.118;2022-12-10T14:49:37;70.45;;;40.30;;
1154;SDS011;566;48.414;9.118;2022-12-10T14:54:45;70.47;;;39.60;;
1154;SDS011;566;48.414;9.118;2022-12-10T14:57:15;64.25;;;38.50;;
1154;SDS011;566;48.414;9.118;2022-12-10T15:02:48;76.43;;;41.08;;
1154;SDS011;566;48.414;9.118;2022-12-10T15:05:17;86.43;;;47.88;;
1154;SDS011;566;48.414;9.118;2022-12-10T15:08:04;96.22;;;46.70;;
1154;SDS011;566;48.414;9.118;2022-12-10T15:10:39;88.88;;;47.35;;
1154;SDS011;566;48.414;9.118;2022-12-10T15:13:17;75.50;;;43.17;;
1154;SDS011;566;48.414;9.118;2022-12-10T15:15:50;84.93;;;45.97;;
1154;SDS011;566;48.414;9.118;2022-12-10T15:18:18;84.18;;;46.80;;
1154;SDS011;566;48.414;9.118;2022-12-10T15:20:47;81.70;;;44.28;;
1154;SDS011;566;48.414;9.118;2022-12-10T15:23:19;73.90;;;42.65;;
1154;SDS011;566;48.414;9.118;2022-12-10T15:25:52;78.18;;;41.38;;
1154;SDS011;566;48.414;9.118;2022-12-10T15:28:27;79.65;;;42.47;;
1154;SDS011;566;48.414;9.118;2022-12-10T15:30:55;78.13;;;41.13;;
1154;SDS011;566;48.414;9.118;2022-12-10T15:33:30;73.30;;;40.75;;
1154;SDS011;566;48.414;9.118;2022-12-10T15:36:01;70.43;;;39.88;;
1154;SDS011;566;48.414;9.118;2022-12-10T15:38:27;73.35;;;42.00;;
1154;SDS011;566;48.414;9.118;2022-12-10T15:40:57;79.88;;;44.92;;
1154;SDS011;566;48.414;9.118;2022-12-10T15:43:28;72.93;;;41.75;;
1154;SDS011;566;48.414;9.118;2022-12-10T15:45:55;72.57;;;40.33;;
1154;SDS011;566;48.414;9.118;2022-12-10T15:48:22;61.17;;;35.25;;
1154;SDS011;566;48.414;9.118;2022-12-10T15:50:51;69.88;;;38.17;;
1154;SDS011;566;48.414;9.118;2022-12-10T15:53:21;66.30;;;37.10;;
1154;SDS011;566;48.414;9.118;2022-12-10T15:55:59;59.55;;;35.42;;
1154;SDS011;566;48.414;9.118;2022-12-10T15:58:25;68.47;;;36.63;;
1154;SDS011;566;48.414;9.118;2022-12-10T16:00:51;81.70;;;42.22;;
1154;SDS011;566;48.414;9.118;2022-12-10T16:03:16;67.90;;;38.47;;
1154;SDS011;566;48.414;9.118;2022-12-10T16:05:44;78.47;;;43.15;;
1154;SDS011;566;48.414;9.118;2022-12-10T16:08:24;71.85;;;40.20;;
1154;SDS011;566;48.414;9.118;2022-12-10T16:10:53;73.75;;;39.38;;
1154;SDS011;566;48.414;9.118;2022-12-10T16:13:25;62.47;;;37.55;;
1154;SDS011;566;48.414;9.118;2022-12-10T16:16:00;71.82;;;38.78;;
1154;SDS011;566;48.414;9.118;2022-12-10T16:18:29;69.68;;;38.00;;
1154;SDS011;566;48.414;9.118;2022-12-10T16:20:59;78.22;;;38.75;;
1154;SDS011;566;48.414;9.118;2022-12-10T16:23:24;72.22;;;39.45;;
1154;SDS011;566;48.414;9.118;2022-12-10T16:25:50;87.35;;;45.78;;
1154;SDS011;566;48.414;9.118;2022-12-10T16:28:16;81.93;;;42.67;;
1154;SDS011;566;48.414;9.118;2022-12-10T16:30:47;83.65;;;43.00;;
1154;SDS011;566;48.414;9.118;2022-12-10T16:35:44;68.32;;;37.67;;
1154;SDS011;566;48.414;9.118;2022-12-10T16:38:11;73.45;;;38.45;;
1154;SDS011;566;48.414;9.118;2022-12-10T16:40:37;79.53;;;44.83;;
1154;SDS011;566;48.414;9.118;2022-12-10T16:43:04;73.65;;;37.90;;
1154;SDS011;566;48.414;9.118;2022-12-10T16:45:34;66.45;;;36.92;;
1154;SDS011;566;48.414;9.118;2022-12-10T16:48:01;85.30;;;44.03;;
1154;SDS011;566;48.414;9.118;2022-12-10T16:50:30;76.38;;;40.30;;
1154;SDS011;566;48.414;9.118;2022-12-10T16:52:56;81.68;;;42.08;;
1154;SDS011;566;48.414;9.118;2022-12-10T16:55:23;85.35;;;44.38;;
1154;SDS011;566;48.414;9.118;2022-12-10T16:57:53;77.15;;;41.55;;
1154;SDS011;566;48.414;9.118;2022-12-10T17:00:20;79.35;;;42.50;;
1154;SDS011;566;48.414;9.118;2022-12-10T17:02:51;71.97;;;38.28;;
1154;SDS011;566;48.414;9.118;2022-12-10T17:05:22;84.70;;;43.92;;
1154;SDS011;566;48.414;9.118;2022-12-10T17:07:49;65.50;;;37.13;;
1154;SDS011;566;48.414;9.118;2022-12-10T17:10:15;66.95;;;37.72;;
1154;SDS011;566;48.414;9.118;2022-12-10T17:12:41;71.85;;;41.60;;
1154;SDS011;566;48.414;9.118;2022-12-10T17:15:08;86.40;;;45.63;;
1154;SDS011;566;48.414;9.118;2022-12-10T17:17:36;84.05;;;44.60;;
1154;SDS011;566;48.414;9.118;2022-12-10T17:20:06;80.28;;;44.40;;
1154;SDS011;566;48.414;9.118;2022-12-10T17:22:43;69.80;;;39.95;;
1154;SDS011;566;48.414;9.118;2022-12-10T17:25:09;74.75;;;41.83;;
1154;SDS011;566;48.414;9.118;2022-12-10T17:27:34;87.70;;;45.85;;
1154;SDS011;566;48.414;9.118;2022-12-10T17:30:00;80.65;;;44.28;;